Bouquet Canyon, California
Current Conditions -  °F | °C
As of 7:51 PM on Tuesday 25 Nov 2014 (Local Time) from KVNY Reporting Station
Clear Clear  
Wind Chill: 64°   Ceiling: Unl
Heat Index: 64°   Visibility: 10mi
Dew Point: 19°   Wind: 5mph
Humidity: 18%   Direction: 300°WNW
Pressure: 30.29"   Gusts: NA
Location:  34.446°N, 118.517°W
Report Text: KVNY 260351Z 30004KT 10SM CLR 18/M07 A3029 RMK AO2 SLP253 T01781072
Loading
Personal Weather Stations






























Interactive Weather Map New forecast layout! Learn more

10-Day Weather Forecast

Advertisements
Track Severe Weather on mobile